Time;durP1;ratioP1;P1;durP2;ratioP2;P2;SDS_P1;SDS_P2;PMS_P1;PMS_P2;Temp;Humidity;BMP_temperature;BMP_pressure;BME280_temperature;BME280_humidity;BME280_pressure;Samples;Min_cycle;Max_cycle;Signal;HPM_P1;HPM_P2
2021/09/07 00:01:27;;;;;;;4.32;2.97;;;25.10;50.70;;;;;;6231485;28;20047;-77
2021/09/07 00:04:30;;;;;;;7.45;3.58;;;25.00;51.20;;;;;;6231015;28;20363;-77
2021/09/07 00:07:31;;;;;;;8.20;3.83;;;24.90;51.50;;;;;;6247615;28;20106;-76
2021/09/07 00:10:32;;;;;;;6.65;3.22;;;24.90;51.90;;;;;;6246386;28;20042;-76
2021/09/07 00:13:33;;;;;;;6.45;3.65;;;24.80;52.20;;;;;;6247792;28;20030;-77
2021/09/07 00:16:35;;;;;;;7.15;3.35;;;24.80;52.40;;;;;;6230367;28;20377;-76
2021/09/07 00:19:36;;;;;;;9.63;3.30;;;24.70;52.50;;;;;;6247238;28;20030;-77
2021/09/07 00:22:37;;;;;;;4.97;3.38;;;24.70;52.70;;;;;;6230474;28;20045;-77
2021/09/07 00:25:38;;;;;;;8.63;3.50;;;24.70;52.70;;;;;;6230884;28;20034;-77
2021/09/07 00:28:39;;;;;;;5.93;3.30;;;24.70;52.70;;;;;;6231152;28;20025;-77
2021/09/07 00:31:39;;;;;;;5.72;3.45;;;24.70;52.70;;;;;;6230343;28;20038;-77
2021/09/07 00:34:40;;;;;;;5.03;3.38;;;24.70;52.80;;;;;;6246287;28;20029;-77
2021/09/07 00:37:42;;;;;;;7.25;3.67;;;24.70;52.90;;;;;;6245339;28;20044;-77
2021/09/07 00:40:45;;;;;;;4.13;3.10;;;24.60;53.00;;;;;;6230035;28;20037;-77
2021/09/07 00:43:46;;;;;;;8.85;3.55;;;24.60;53.10;;;;;;6229007;28;20057;-77
2021/09/07 00:46:54;;;;;;;6.78;3.22;;;24.60;53.10;;;;;;6246143;28;20080;-76
2021/09/07 00:49:55;;;;;;;9.10;3.42;;;24.60;53.20;;;;;;6246180;28;20030;-76
2021/09/07 00:52:56;;;;;;;6.35;3.67;;;24.60;53.00;;;;;;6245209;28;20042;-76
2021/09/07 00:55:59;;;;;;;4.90;3.53;;;24.60;53.00;;;;;;6246152;28;20044;-76
2021/09/07 00:59:02;;;;;;;14.50;3.90;;;24.60;53.00;;;;;;6229887;28;20083;-76
2021/09/07 01:02:05;;;;;;;5.57;3.10;;;24.50;52.90;;;;;;6245720;28;20383;-76
2021/09/07 01:05:08;;;;;;;6.10;3.55;;;24.60;53.00;;;;;;6211813;28;20475;-76
2021/09/07 01:08:09;;;;;;;9.55;3.47;;;24.50;53.00;;;;;;6214600;28;20041;-77
2021/09/07 01:11:10;;;;;;;6.28;3.67;;;24.50;53.80;;;;;;6245780;28;20103;-77
2021/09/07 01:14:13;;;;;;;6.43;3.45;;;24.50;53.40;;;;;;6246082;28;20045;-77
2021/09/07 01:17:18;;;;;;;6.70;3.10;;;24.50;53.50;;;;;;6245857;28;20038;-77
2021/09/07 01:20:19;;;;;;;5.72;3.58;;;24.50;53.60;;;;;;6246390;28;20536;-77
2021/09/07 01:23:20;;;;;;;10.88;3.75;;;24.50;53.60;;;;;;6245718;28;20038;-77
2021/09/07 01:26:22;;;;;;;6.05;3.60;;;24.50;53.70;;;;;;6245268;28;20083;-77
2021/09/07 01:29:23;;;;;;;6.95;3.70;;;24.50;53.80;;;;;;6250010;28;20042;-77
2021/09/07 01:32:27;;;;;;;8.93;3.50;;;24.50;53.80;;;;;;6188903;28;1303665;-77
2021/09/07 01:35:29;;;;;;;6.68;3.55;;;24.40;53.70;;;;;;6251081;28;20103;-77
2021/09/07 01:38:31;;;;;;;5.53;3.53;;;24.40;53.40;;;;;;6251860;28;20405;-78
2021/09/07 01:41:32;;;;;;;7.22;3.63;;;24.40;53.30;;;;;;6251702;28;20485;-77
2021/09/07 01:44:34;;;;;;;5.25;3.28;;;24.30;53.20;;;;;;6234480;28;20026;-77
2021/09/07 01:47:40;;;;;;;7.85;3.28;;;24.30;53.10;;;;;;6251743;28;20038;-77
2021/09/07 01:50:41;;;;;;;7.30;3.33;;;24.30;53.00;;;;;;6252334;28;20083;-78
2021/09/07 01:53:42;;;;;;;7.55;2.83;;;24.20;53.00;;;;;;6251553;28;20391;-77
2021/09/07 01:56:44;;;;;;;7.32;3.10;;;24.20;53.00;;;;;;6250234;28;20041;-77
2021/09/07 01:59:45;;;;;;;5.35;2.90;;;24.20;53.00;;;;;;6251301;28;20462;-77
2021/09/07 02:02:47;;;;;;;6.57;3.10;;;24.10;52.90;;;;;;6250374;28;20128;-77
2021/09/07 02:05:49;;;;;;;7.78;3.40;;;24.10;53.00;;;;;;6208325;28;20459;-77
2021/09/07 02:08:49;;;;;;;6.10;3.28;;;24.10;53.30;;;;;;6233596;28;20033;-77
2021/09/07 02:11:50;;;;;;;5.15;2.83;;;24.10;53.60;;;;;;6250945;28;20044;-77
2021/09/07 02:14:53;;;;;;;7.25;3.50;;;24.00;53.70;;;;;;6250599;28;20514;-77
2021/09/07 02:17:56;;;;;;;5.18;2.88;;;24.00;53.80;;;;;;6228675;28;20033;-77
2021/09/07 02:20:57;;;;;;;5.63;3.08;;;24.00;53.90;;;;;;6235440;28;20095;-77
2021/09/07 02:23:59;;;;;;;4.95;3.22;;;23.90;54.00;;;;;;6233323;28;20041;-77
2021/09/07 02:27:01;;;;;;;5.20;2.78;;;23.90;54.10;;;;;;6255706;28;20352;-76
2021/09/07 02:30:03;;;;;;;6.13;3.22;;;23.90;54.20;;;;;;6236404;28;20474;-77
2021/09/07 02:33:04;;;;;;;9.73;3.20;;;23.90;54.20;;;;;;6250853;28;20099;-77
2021/09/07 02:36:05;;;;;;;4.70;3.30;;;23.80;54.20;;;;;;6250402;28;20467;-76
2021/09/07 02:39:08;;;;;;;9.77;3.40;;;23.80;54.50;;;;;;6243212;28;20112;-77
2021/09/07 02:42:09;;;;;;;4.47;2.70;;;23.80;54.50;;;;;;6250507;28;20044;-76
2021/09/07 02:45:10;;;;;;;5.32;3.35;;;23.70;54.50;;;;;;6250620;28;20030;-76
2021/09/07 02:48:14;;;;;;;6.55;3.22;;;23.70;54.70;;;;;;6250699;28;20120;-76
2021/09/07 02:51:16;;;;;;;6.53;3.42;;;23.70;54.90;;;;;;6249458;28;20041;-76
2021/09/07 02:54:17;;;;;;;4.68;3.30;;;23.70;55.10;;;;;;6232920;28;20037;-77
2021/09/07 02:57:18;;;;;;;10.48;3.35;;;23.70;55.20;;;;;;6249552;28;20068;-77
2021/09/07 03:00:19;;;;;;;6.07;2.88;;;23.70;55.40;;;;;;6250423;28;20049;-77
2021/09/07 03:03:22;;;;;;;5.60;3.40;;;23.60;55.40;;;;;;6249612;28;20541;-77
2021/09/07 03:06:23;;;;;;;4.28;2.95;;;23.60;55.40;;;;;;6249210;28;20052;-77
2021/09/07 03:09:25;;;;;;;9.45;3.50;;;23.60;55.50;;;;;;6231868;28;20029;-77
2021/09/07 03:12:25;;;;;;;4.65;3.15;;;23.60;55.50;;;;;;6231378;28;20065;-77
2021/09/07 03:15:27;;;;;;;5.20;2.97;;;23.60;55.50;;;;;;6249016;28;20034;-78
2021/09/07 03:18:29;;;;;;;4.65;3.00;;;23.60;55.60;;;;;;6248957;28;20036;-77
2021/09/07 03:21:31;;;;;;;5.88;2.90;;;23.50;55.70;;;;;;6248799;28;20112;-77
2021/09/07 03:24:32;;;;;;;7.93;3.30;;;23.50;56.30;;;;;;6232264;28;20471;-77
2021/09/07 03:27:33;;;;;;;6.63;3.13;;;23.40;56.30;;;;;;6238753;28;20041;-77
2021/09/07 03:30:36;;;;;;;6.13;3.28;;;23.40;56.00;;;;;;6247084;28;20103;-77
2021/09/07 03:33:37;;;;;;;7.05;3.10;;;23.40;56.10;;;;;;6249339;28;20462;-77
2021/09/07 03:36:39;;;;;;;5.55;3.22;;;23.40;56.00;;;;;;6248967;28;20033;-77
2021/09/07 03:39:41;;;;;;;7.13;2.97;;;23.30;55.70;;;;;;6249648;28;20040;-77
2021/09/07 03:42:42;;;;;;;6.25;3.50;;;23.30;55.70;;;;;;6248441;28;20034;-77
2021/09/07 03:45:44;;;;;;;5.72;3.45;;;23.30;55.80;;;;;;6228996;28;20485;-78
2021/09/07 03:48:45;;;;;;;12.98;3.25;;;23.30;56.00;;;;;;6248270;28;20030;-77
2021/09/07 03:51:46;;;;;;;10.85;3.22;;;23.20;56.10;;;;;;6247913;28;20037;-77
2021/09/07 03:54:51;;;;;;;5.45;3.38;;;23.20;56.30;;;;;;6231345;28;20060;-77
2021/09/07 03:57:52;;;;;;;6.68;3.33;;;23.20;56.40;;;;;;6248809;28;20041;-78
2021/09/07 04:00:53;;;;;;;6.10;3.13;;;23.10;56.70;;;;;;6247732;28;20048;-77
2021/09/07 04:03:55;;;;;;;6.18;3.80;;;23.10;56.90;;;;;;6247534;28;20049;-78
2021/09/07 04:06:57;;;;;;;6.13;3.20;;;23.10;57.20;;;;;;6228573;28;20045;-77
2021/09/07 04:09:58;;;;;;;8.80;4.00;;;23.00;57.30;;;;;;6230143;28;20049;-77
2021/09/07 04:12:59;;;;;;;4.93;3.75;;;23.00;57.40;;;;;;6230637;28;20034;-77
2021/09/07 04:16:03;;;;;;;10.68;3.40;;;22.90;57.50;;;;;;6248800;28;20363;-77
2021/09/07 04:19:04;;;;;;;10.35;3.70;;;22.80;57.70;;;;;;6227245;28;20103;-77
2021/09/07 04:22:05;;;;;;;7.43;3.95;;;22.80;57.80;;;;;;6247234;28;20034;-77
2021/09/07 04:25:07;;;;;;;10.60;3.72;;;22.80;57.90;;;;;;6247987;28;20525;-77
2021/09/07 04:28:08;;;;;;;4.60;3.20;;;22.70;58.00;;;;;;6230963;28;20053;-78
2021/09/07 04:31:12;;;;;;;6.88;3.95;;;22.70;58.10;;;;;;6231165;28;20073;-77
2021/09/07 04:34:13;;;;;;;6.30;3.58;;;22.70;58.30;;;;;;6230587;28;20443;-77
2021/09/07 04:37:14;;;;;;;4.43;3.25;;;22.60;58.40;;;;;;6247286;28;20041;-77
2021/09/07 04:40:16;;;;;;;9.98;3.83;;;22.60;58.40;;;;;;6248059;28;20371;-78
2021/09/07 04:43:17;;;;;;;7.40;3.92;;;22.60;58.60;;;;;;6246854;28;20535;-78
2021/09/07 04:46:19;;;;;;;8.90;3.40;;;22.50;58.60;;;;;;6248516;28;20034;-78
2021/09/07 04:49:22;;;;;;;8.50;3.90;;;22.50;58.60;;;;;;6247106;28;20045;-78
2021/09/07 04:52:23;;;;;;;5.55;3.70;;;22.50;58.70;;;;;;6247381;28;20041;-78
2021/09/07 04:55:24;;;;;;;6.05;3.67;;;22.50;58.60;;;;;;6247055;28;20104;-78
2021/09/07 04:58:24;;;;;;;4.57;3.10;;;22.40;58.70;;;;;;6247171;28;20490;-78
2021/09/07 05:01:25;;;;;;;11.30;4.10;;;22.40;58.90;;;;;;6230778;28;20056;-78
2021/09/07 05:04:26;;;;;;;11.60;4.47;;;22.30;58.90;;;;;;6252376;28;20110;-78
2021/09/07 05:07:28;;;;;;;6.13;3.50;;;22.30;59.10;;;;;;6250697;28;20038;-78
2021/09/07 05:10:29;;;;;;;6.85;4.03;;;22.20;59.10;;;;;;6250916;28;20347;-78
2021/09/07 05:13:30;;;;;;;5.78;3.97;;;22.20;59.20;;;;;;6233997;28;20037;-78
2021/09/07 05:16:31;;;;;;;5.78;3.78;;;22.20;59.30;;;;;;6251771;28;20029;-78
2021/09/07 05:19:32;;;;;;;6.70;3.88;;;22.20;59.40;;;;;;6234935;28;20092;-78
2021/09/07 05:22:33;;;;;;;9.57;3.92;;;22.20;59.40;;;;;;6251669;28;20033;-78
2021/09/07 05:25:34;;;;;;;4.60;3.53;;;22.10;59.50;;;;;;6251064;28;20059;-78
2021/09/07 05:28:35;;;;;;;5.57;3.53;;;22.10;59.60;;;;;;6251361;28;20370;-77
2021/09/07 05:31:36;;;;;;;8.25;4.30;;;22.00;59.60;;;;;;6250498;28;20477;-78
2021/09/07 05:34:38;;;;;;;8.57;3.83;;;22.00;59.80;;;;;;6233018;28;20048;-78
2021/09/07 05:37:40;;;;;;;6.72;4.15;;;21.90;59.90;;;;;;6252219;28;20033;-77
2021/09/07 05:40:41;;;;;;;8.50;4.55;;;21.90;60.00;;;;;;6250843;28;20401;-79
2021/09/07 05:43:42;;;;;;;18.60;4.60;;;21.90;59.90;;;;;;6251038;28;20086;-77
2021/09/07 05:46:43;;;;;;;12.02;4.10;;;21.90;59.90;;;;;;6250506;28;20386;-76
2021/09/07 05:49:46;;;;;;;15.43;4.80;;;21.90;59.90;;;;;;6234076;28;20033;-78
2021/09/07 05:52:47;;;;;;;6.18;4.03;;;21.90;59.80;;;;;;6250214;28;20037;-76
2021/09/07 05:55:48;;;;;;;7.85;4.00;;;22.00;59.80;;;;;;6250188;28;20087;-77
2021/09/07 05:58:49;;;;;;;12.25;4.07;;;22.00;59.70;;;;;;6228316;28;20478;-77
2021/09/07 06:01:50;;;;;;;9.60;4.13;;;22.10;59.70;;;;;;6250892;28;20095;-77
2021/09/07 06:04:51;;;;;;;10.93;3.90;;;22.10;59.60;;;;;;6233789;28;20036;-77
2021/09/07 06:07:52;;;;;;;11.43;3.97;;;22.10;59.50;;;;;;6233550;28;20377;-77
2021/09/07 06:10:53;;;;;;;6.30;4.13;;;22.20;59.40;;;;;;6232900;28;20042;-78
2021/09/07 06:13:54;;;;;;;7.15;3.67;;;22.20;59.30;;;;;;6250004;28;20041;-77
2021/09/07 06:16:56;;;;;;;7.28;3.97;;;22.30;59.30;;;;;;6249788;28;20120;-77
2021/09/07 06:19:57;;;;;;;8.57;3.80;;;22.30;59.20;;;;;;6250276;28;20045;-77
2021/09/07 06:22:57;;;;;;;8.45;4.15;;;22.30;59.00;;;;;;6252192;28;20037;-76
2021/09/07 06:25:59;;;;;;;7.07;3.90;;;23.10;59.30;;;;;;6224723;28;20065;-76
2021/09/07 06:29:00;;;;;;;8.43;4.13;;;22.40;58.90;;;;;;6248695;28;20041;-78
2021/09/07 06:32:02;;;;;;;11.20;4.47;;;22.40;58.70;;;;;;6249579;28;20119;-79
2021/09/07 06:35:04;;;;;;;7.70;3.78;;;22.40;58.70;;;;;;6232368;28;20180;-78
2021/09/07 06:38:05;;;;;;;13.07;6.20;;;22.50;58.70;;;;;;6248671;28;20038;-79
2021/09/07 06:41:07;;;;;;;6.40;4.13;;;22.50;58.60;;;;;;6248410;28;20379;-76
2021/09/07 06:44:08;;;;;;;8.70;4.53;;;22.50;58.50;;;;;;6249043;28;20459;-78
2021/09/07 06:47:10;;;;;;;7.00;4.05;;;22.60;58.50;;;;;;6232591;28;20076;-77
2021/09/07 06:50:11;;;;;;;22.98;4.63;;;22.60;58.30;;;;;;6232490;28;20052;-77
2021/09/07 06:53:12;;;;;;;8.65;4.25;;;22.70;58.30;;;;;;6249886;28;20045;-77
2021/09/07 06:56:13;;;;;;;7.40;3.90;;;22.70;58.20;;;;;;6248454;28;20029;-77
2021/09/07 06:59:14;;;;;;;7.93;3.55;;;22.80;58.00;;;;;;6232215;28;20038;-77
2021/09/07 07:02:15;;;;;;;8.50;4.18;;;22.90;58.00;;;;;;6248187;28;20030;-77
2021/09/07 07:05:16;;;;;;;11.30;4.60;;;22.90;57.80;;;;;;6249680;28;20371;-77
2021/09/07 07:08:17;;;;;;;9.07;4.05;;;23.00;57.60;;;;;;6225364;28;20053;-77
2021/09/07 07:12:04;;;;;;;7.50;4.20;;;23.10;57.40;;;;;;6231142;28;20478;-78
2021/09/07 07:15:05;;;;;;;6.75;3.50;;;23.20;57.30;;;;;;6243984;28;20441;-78
2021/09/07 07:18:06;;;;;;;7.90;4.10;;;23.20;56.90;;;;;;6245805;28;20508;-78
2021/09/07 07:21:07;;;;;;;13.05;3.75;;;23.30;56.80;;;;;;6243621;28;20056;-78
2021/09/07 07:24:09;;;;;;;5.68;3.35;;;23.40;56.80;;;;;;6242324;28;20042;-79
2021/09/07 07:27:10;;;;;;;6.07;3.75;;;23.50;56.50;;;;;;6243440;28;20049;-78
2021/09/07 07:30:12;;;;;;;9.00;4.05;;;23.70;56.10;;;;;;6243380;28;20045;-78
2021/09/07 07:33:14;;;;;;;12.90;4.50;;;23.80;55.80;;;;;;6243789;28;20048;-80
2021/09/07 07:36:16;;;;;;;14.27;4.20;;;23.90;55.60;;;;;;6245107;28;20113;-78
2021/09/07 07:39:30;;;;;;;6.75;3.78;;;24.00;55.30;;;;;;6244848;28;20049;-77
2021/09/07 07:42:31;;;;;;;11.80;3.83;;;24.20;55.00;;;;;;6227316;28;20030;-78
2021/09/07 07:45:32;;;;;;;8.43;3.85;;;24.30;54.70;;;;;;6243891;28;20087;-77
2021/09/07 07:48:33;;;;;;;5.68;3.53;;;24.40;54.40;;;;;;6243315;28;20044;-78
2021/09/07 07:51:34;;;;;;;9.52;3.22;;;24.50;54.30;;;;;;6243295;28;20029;-78
2021/09/07 07:54:34;;;;;;;9.40;3.35;;;24.70;53.90;;;;;;6236493;28;20041;-78
2021/09/07 07:57:35;;;;;;;17.83;9.05;;;24.80;53.40;;;;;;6242456;28;20037;-78
2021/09/07 08:00:36;;;;;;;5.68;3.38;;;24.90;52.80;;;;;;6233253;28;21363;-78
2021/09/07 08:03:40;;;;;;;7.43;4.03;;;25.00;52.60;;;;;;6224015;28;20116;-78
2021/09/07 08:06:41;;;;;;;6.32;3.60;;;25.10;52.30;;;;;;6246568;28;20347;-79
2021/09/07 08:09:42;;;;;;;6.35;3.70;;;25.20;52.10;;;;;;6244919;28;20045;-79
2021/09/07 08:12:44;;;;;;;6.15;3.25;;;25.30;52.00;;;;;;6229846;28;20034;-79
2021/09/07 08:15:45;;;;;;;4.80;2.92;;;25.40;51.80;;;;;;6247562;28;20061;-78
2021/09/07 08:18:46;;;;;;;5.15;3.28;;;25.60;51.60;;;;;;6229290;28;20147;-77
2021/09/07 08:21:46;;;;;;;10.50;3.53;;;25.80;51.10;;;;;;6227286;28;20037;-81
2021/09/07 08:24:49;;;;;;;7.80;3.47;;;25.90;50.90;;;;;;6208724;28;20037;-79
2021/09/07 08:27:50;;;;;;;8.25;3.47;;;26.00;50.40;;;;;;6228702;28;20370;-78
2021/09/07 08:30:51;;;;;;;11.63;3.30;;;26.10;50.10;;;;;;6228167;28;20046;-78
2021/09/07 08:33:52;;;;;;;9.23;3.25;;;26.20;49.80;;;;;;6230989;28;20042;-81
2021/09/07 08:36:53;;;;;;;7.18;3.33;;;26.30;49.50;;;;;;6223528;28;20038;-80
2021/09/07 08:39:54;;;;;;;7.47;3.00;;;26.40;49.30;;;;;;6250255;28;20048;-81
2021/09/07 08:42:55;;;;;;;5.50;3.92;;;26.60;49.10;;;;;;6226844;28;20065;-79
2021/09/07 08:45:58;;;;;;;6.13;3.33;;;26.70;48.60;;;;;;6233974;28;20126;-80
2021/09/07 08:48:59;;;;;;;7.32;4.03;;;26.80;48.40;;;;;;6250961;28;20540;-79
2021/09/07 08:52:00;;;;;;;4.85;2.92;;;26.90;48.20;;;;;;6237701;28;20038;-77
2021/09/07 08:55:02;;;;;;;8.48;4.05;;;27.00;47.90;;;;;;6238502;28;20044;-79
2021/09/07 08:58:03;;;;;;;8.20;3.97;;;27.00;47.70;;;;;;6249941;28;20426;-77
2021/09/07 09:01:15;;;;;;;10.23;4.85;;;27.10;47.60;;;;;;6231594;28;20033;-77
2021/09/07 09:04:31;;;;;;;23.95;10.57;;;27.20;47.50;;;;;;6249178;28;20038;-78
2021/09/07 09:07:33;;;;;;;8.05;4.05;;;27.30;47.30;;;;;;6231058;28;20069;-78
2021/09/07 09:10:33;;;;;;;5.60;3.40;;;27.50;47.10;;;;;;6247792;28;20042;-77
2021/09/07 09:13:46;;;;;;;12.88;4.72;;;27.50;46.90;;;;;;6247559;28;20065;-78
2021/09/07 09:16:47;;;;;;;6.60;3.88;;;27.60;47.10;;;;;;6246952;28;20041;-78
2021/09/07 09:19:50;;;;;;;19.33;4.38;;;27.70;47.00;;;;;;6247843;28;20521;-77
2021/09/07 09:22:56;;;;;;;8.15;3.97;;;27.80;46.80;;;;;;6229532;28;20033;-78
2021/09/07 09:26:00;;;;;;;5.38;3.08;;;27.80;46.60;;;;;;6246771;28;20036;-78
2021/09/07 09:29:06;;;;;;;7.93;3.13;;;27.80;46.50;;;;;;6230171;28;20048;-78
2021/09/07 09:32:12;;;;;;;5.18;3.22;;;27.80;46.40;;;;;;6248303;28;20057;-77
2021/09/07 09:35:13;;;;;;;11.55;6.25;;;27.80;46.90;;;;;;6246038;28;20025;-77
2021/09/07 09:38:15;;;;;;;10.68;5.00;;;27.80;46.30;;;;;;6247050;28;20403;-78
2021/09/07 09:41:16;;;;;;;11.40;6.03;;;27.80;46.10;;;;;;6230196;28;20030;-78
2021/09/07 09:44:27;;;;;;;5.90;2.63;;;27.80;46.00;;;;;;6225130;28;20038;-77
2021/09/07 09:47:42;;;;;;;15.27;6.35;;;27.80;46.00;;;;;;6244624;28;20045;-79
2021/09/07 09:50:43;;;;;;;13.25;5.18;;;27.90;45.80;;;;;;6221475;28;20033;-77
2021/09/07 09:53:49;;;;;;;6.70;4.00;;;28.10;45.90;;;;;;6231569;28;20057;-78
2021/09/07 09:56:50;;;;;;;7.45;3.65;;;28.00;45.90;;;;;;6246000;28;20120;-78
2021/09/07 09:59:53;;;;;;;11.43;4.38;;;28.10;45.80;;;;;;6246689;28;20029;-77
2021/09/07 10:02:59;;;;;;;15.88;7.63;;;28.10;45.50;;;;;;6245174;28;20045;-77
2021/09/07 10:06:00;;;;;;;8.60;4.05;;;28.20;45.30;;;;;;6246921;28;20075;-77
2021/09/07 10:09:01;;;;;;;7.78;4.25;;;28.30;45.10;;;;;;6246257;28;20079;-79
2021/09/07 10:12:21;;;;;;;8.15;4.07;;;28.40;44.90;;;;;;6247923;28;20463;-78
2021/09/07 10:15:31;;;;;;;8.35;4.30;;;28.40;44.60;;;;;;6246945;28;20044;-79
2021/09/07 10:18:45;;;;;;;12.40;3.83;;;28.50;44.60;;;;;;6244868;28;20037;-79
2021/09/07 10:24:51;;;;;;;29.45;12.80;;;28.80;44.30;;;;;;6246121;28;20068;-79
2021/09/07 10:28:11;;;;;;;15.05;7.70;;;28.80;44.10;;;;;;6248000;28;20037;-78
2021/09/07 10:31:23;;;;;;;11.60;4.43;;;28.90;44.00;;;;;;6244906;28;20132;-79
2021/09/07 10:34:28;;;;;;;7.47;4.00;;;29.00;43.70;;;;;;6242209;28;20119;-79
2021/09/07 10:38:08;;;;;;;11.73;4.55;;;29.20;43.60;;;;;;6226088;28;20492;-79
2021/09/07 10:41:30;;;;;;;7.05;3.40;;;29.50;43.20;;;;;;6237618;28;20041;-79
2021/09/07 10:44:33;;;;;;;5.45;3.33;;;30.00;42.40;;;;;;6243766;28;20057;-79
2021/09/07 10:47:45;;;;;;;9.27;4.15;;;30.50;41.70;;;;;;6244770;28;20418;-80
2021/09/07 10:51:01;;;;;;;17.27;6.22;;;30.90;40.80;;;;;;6245230;28;20051;-78
2021/09/07 10:54:08;;;;;;;4.90;3.70;;;31.30;40.40;;;;;;6214140;28;20033;-78
2021/09/07 10:57:09;;;;;;;5.97;3.10;;;31.60;39.60;;;;;;6234059;28;20477;-78
2021/09/07 11:00:16;;;;;;;5.97;3.15;;;31.90;38.80;;;;;;6244220;28;20033;-79
2021/09/07 11:03:24;;;;;;;12.48;4.25;;;32.10;37.90;;;;;;6242117;28;20109;-79
2021/09/07 11:06:46;;;;;;;6.97;4.55;;;32.30;36.90;;;;;;6242327;28;20038;-80
2021/09/07 11:09:55;;;;;;;7.20;3.25;;;32.70;36.60;;;;;;6243108;28;20033;-80
2021/09/07 11:13:02;;;;;;;4.10;2.80;;;33.10;35.90;;;;;;6244208;28;20335;-78
2021/09/07 11:16:03;;;;;;;3.55;2.45;;;33.40;35.20;;;;;;6244509;28;20099;-78
2021/09/07 11:19:04;;;;;;;5.00;2.95;;;33.70;34.60;;;;;;6243554;28;20037;-78
2021/09/07 11:22:32;;;;;;;8.70;2.95;;;33.80;34.50;;;;;;6227658;28;20140;-78
2021/09/07 11:25:33;;;;;;;9.60;3.30;;;33.90;34.10;;;;;;6226012;28;20108;-78
2021/09/07 11:28:35;;;;;;;6.00;2.80;;;33.90;33.80;;;;;;6244055;28;20494;-78
2021/09/07 11:31:36;;;;;;;5.82;2.85;;;33.90;34.00;;;;;;6240281;28;20045;-78
2021/09/07 11:34:37;;;;;;;4.45;3.00;;;34.00;34.20;;;;;;6237806;28;20056;-78
2021/09/07 11:37:38;;;;;;;4.65;3.03;;;34.10;34.00;;;;;;6243767;28;20033;-78
2021/09/07 11:40:54;;;;;;;11.63;3.25;;;34.20;33.40;;;;;;6244617;28;20037;-78
2021/09/07 11:43:59;;;;;;;5.40;2.78;;;34.30;33.30;;;;;;6242634;28;20029;-77
2021/09/07 11:47:05;;;;;;;5.68;2.92;;;34.60;33.20;;;;;;6202380;28;20064;-78
2021/09/07 11:50:07;;;;;;;9.32;3.13;;;34.90;32.90;;;;;;6227563;28;20351;-77
2021/09/07 11:53:10;;;;;;;24.73;3.40;;;35.20;32.50;;;;;;6227304;28;20126;-76
2021/09/07 11:56:22;;;;;;;7.80;2.80;;;35.50;31.90;;;;;;6233504;28;20117;-78
2021/09/07 11:59:23;;;;;;;11.85;3.05;;;35.80;31.40;;;;;;6244900;28;20037;-77
2021/09/07 12:02:27;;;;;;;9.82;3.63;;;36.00;30.90;;;;;;6226504;28;20049;-78
2021/09/07 12:05:51;;;;;;;9.57;3.10;;;36.20;30.70;;;;;;6238667;28;20474;-77
2021/09/07 12:08:52;;;;;;;10.98;2.63;;;36.30;30.20;;;;;;6225735;28;20045;-78
2021/09/07 12:12:06;;;;;;;10.00;3.08;;;36.70;29.70;;;;;;6227941;28;20037;-78
2021/09/07 12:15:15;;;;;;;4.35;2.80;;;37.10;29.40;;;;;;6227337;28;20069;-78
2021/09/07 12:18:26;;;;;;;12.85;3.25;;;37.50;29.10;;;;;;6215397;28;20033;-78
2021/09/07 12:21:27;;;;;;;5.15;2.60;;;37.90;28.70;;;;;;6241305;28;20041;-78
2021/09/07 12:24:28;;;;;;;4.10;2.70;;;38.60;28.20;;;;;;6243854;28;20344;-78
2021/09/07 12:27:32;;;;;;;6.32;2.50;;;39.20;27.20;;;;;;6243964;28;20340;-78
2021/09/07 12:30:39;;;;;;;4.05;2.90;;;39.90;26.60;;;;;;6241038;28;20107;-78
2021/09/07 12:33:49;;;;;;;3.83;2.70;;;40.50;25.80;;;;;;6230663;28;20040;-78
2021/09/07 12:36:51;;;;;;;2.97;2.20;;;41.00;25.10;;;;;;6243710;28;20037;-78
2021/09/07 12:39:52;;;;;;;8.25;2.80;;;41.50;24.60;;;;;;6225852;28;20400;-78
2021/09/07 12:42:53;;;;;;;3.63;2.17;;;42.00;24.10;;;;;;6227606;28;20083;-78
2021/09/07 12:45:56;;;;;;;4.63;2.38;;;42.40;23.50;;;;;;6244930;28;20041;-78
2021/09/07 12:48:57;;;;;;;8.52;2.15;;;42.80;23.20;;;;;;6243404;28;20048;-78
2021/09/07 12:51:58;;;;;;;4.00;2.60;;;43.20;22.70;;;;;;6242902;28;20362;-79
2021/09/07 12:54:59;;;;;;;3.30;2.17;;;43.80;22.30;;;;;;6243366;28;20037;-78
2021/09/07 12:58:00;;;;;;;2.72;2.33;;;44.30;21.80;;;;;;6217004;28;20453;-78
2021/09/07 13:01:03;;;;;;;7.03;3.00;;;44.70;21.50;;;;;;6244071;28;20064;-79
2021/09/07 13:04:04;;;;;;;4.60;2.13;;;45.00;21.10;;;;;;6244872;28;20418;-78
2021/09/07 13:07:05;;;;;;;8.77;2.33;;;44.90;20.80;;;;;;6210658;28;20041;-78
2021/09/07 13:10:06;;;;;;;6.75;2.38;;;44.70;20.80;;;;;;6243329;28;20367;-79
2021/09/07 13:13:08;;;;;;;3.30;1.98;;;44.60;20.90;;;;;;6245548;28;20088;-78
2021/09/07 13:16:14;;;;;;;7.72;3.28;;;44.70;20.90;;;;;;6228810;28;20549;-79
2021/09/07 13:19:18;;;;;;;6.68;2.13;;;44.90;20.70;;;;;;6225625;28;20354;-79
2021/09/07 13:22:19;;;;;;;8.75;3.08;;;45.10;20.50;;;;;;6244132;28;20041;-79
2021/09/07 13:25:20;;;;;;;3.08;2.38;;;45.10;20.20;;;;;;6231291;28;20034;-77
2021/09/07 13:28:22;;;;;;;2.28;2.03;;;45.10;20.20;;;;;;6248060;28;20463;-77
2021/09/07 13:31:22;;;;;;;4.03;2.30;;;45.10;20.20;;;;;;6248161;28;20111;-78
2021/09/07 13:34:23;;;;;;;6.53;2.38;;;45.10;20.10;;;;;;6246164;28;20404;-77
2021/09/07 13:37:25;;;;;;;4.20;2.28;;;44.80;20.00;;;;;;6248370;28;20044;-79
2021/09/07 13:40:26;;;;;;;3.97;2.60;;;44.20;20.40;;;;;;6230912;28;20029;-78
2021/09/07 13:43:28;;;;;;;3.88;2.22;;;43.80;20.70;;;;;;6249274;28;20109;-78
2021/09/07 13:46:29;;;;;;;2.80;2.30;;;43.70;20.80;;;;;;6248332;28;20095;-78
2021/09/07 13:49:34;;;;;;;3.25;2.47;;;43.00;21.30;;;;;;6248624;28;20068;-78
2021/09/07 13:52:35;;;;;;;3.58;2.25;;;41.80;22.30;;;;;;6248380;28;20064;-77
2021/09/07 13:55:36;;;;;;;9.10;2.90;;;40.70;23.20;;;;;;6248034;28;20034;-77
2021/09/07 13:58:37;;;;;;;4.97;2.70;;;39.80;24.20;;;;;;6248300;28;20067;-78
2021/09/07 14:01:38;;;;;;;7.47;2.63;;;39.00;24.90;;;;;;6231166;28;20056;-77
2021/09/07 14:04:39;;;;;;;3.75;2.50;;;38.50;25.60;;;;;;6245790;28;20041;-78
2021/09/07 14:07:41;;;;;;;4.00;2.90;;;38.00;26.10;;;;;;6230805;28;20478;-78
2021/09/07 14:10:42;;;;;;;6.20;2.65;;;37.60;26.70;;;;;;6247100;28;20040;-78
2021/09/07 14:13:43;;;;;;;3.88;2.67;;;37.00;27.40;;;;;;6229036;28;20044;-77
2021/09/07 14:16:44;;;;;;;8.23;3.13;;;36.60;27.90;;;;;;6248570;28;20057;-78
2021/09/07 14:19:45;;;;;;;9.02;2.80;;;36.10;28.40;;;;;;6248053;28;20359;-78
2021/09/07 14:22:46;;;;;;;9.02;2.67;;;35.70;28.80;;;;;;6246025;28;20044;-78
2021/09/07 14:25:47;;;;;;;4.40;2.88;;;35.50;29.20;;;;;;6244732;28;20128;-77
2021/09/07 14:28:48;;;;;;;4.97;2.67;;;35.30;29.40;;;;;;6249247;28;20067;-78
2021/09/07 14:31:49;;;;;;;3.13;2.40;;;35.20;29.70;;;;;;6231389;28;20061;-77
2021/09/07 14:34:54;;;;;;;4.32;3.03;;;35.00;30.10;;;;;;6214876;28;20041;-78
2021/09/07 14:37:56;;;;;;;3.95;2.95;;;34.80;30.30;;;;;;6247804;28;20396;-78
2021/09/07 14:40:57;;;;;;;4.50;2.92;;;34.80;30.40;;;;;;6247582;28;20120;-78
2021/09/07 14:43:58;;;;;;;6.53;3.08;;;34.80;30.60;;;;;;6247887;28;20569;-78
2021/09/07 14:46:59;;;;;;;4.00;2.55;;;34.70;30.80;;;;;;6247294;28;20045;-78
2021/09/07 14:50:00;;;;;;;14.02;3.08;;;34.50;31.20;;;;;;6247976;28;20068;-78
2021/09/07 14:53:00;;;;;;;4.38;3.20;;;34.40;31.40;;;;;;6231109;28;20073;-78
2021/09/07 14:56:01;;;;;;;6.13;3.17;;;34.30;32.00;;;;;;6247646;28;20046;-77
2021/09/07 14:59:02;;;;;;;8.90;3.70;;;34.10;32.30;;;;;;6247722;28;20506;-77
2021/09/07 15:02:03;;;;;;;5.03;2.88;;;33.80;32.70;;;;;;6247528;28;20037;-77
2021/09/07 15:05:05;;;;;;;7.35;3.38;;;33.60;33.20;;;;;;6247392;28;20037;-79
2021/09/07 15:08:07;;;;;;;7.95;3.22;;;33.50;33.40;;;;;;6230958;28;20053;-79
2021/09/07 15:11:08;;;;;;;7.40;3.08;;;33.30;33.60;;;;;;6227351;28;20060;-77
2021/09/07 15:14:09;;;;;;;5.30;3.33;;;33.30;34.00;;;;;;6231117;28;20037;-78
2021/09/07 15:17:10;;;;;;;7.40;3.47;;;33.20;34.20;;;;;;6245961;28;20029;-78
2021/09/07 15:20:11;;;;;;;10.23;3.28;;;33.20;34.70;;;;;;6246938;28;20041;-78
2021/09/07 15:23:12;;;;;;;8.70;3.35;;;33.10;35.00;;;;;;6229294;28;20047;-78
2021/09/07 15:26:14;;;;;;;4.50;3.00;;;33.00;35.20;;;;;;6210181;28;20053;-78
2021/09/07 15:29:15;;;;;;;6.75;3.42;;;32.90;35.30;;;;;;6247905;28;20033;-79
2021/09/07 15:32:16;;;;;;;5.13;3.15;;;32.90;35.40;;;;;;6222757;28;20489;-79
2021/09/07 15:35:18;;;;;;;5.85;3.63;;;32.90;35.50;;;;;;6221025;28;20394;-78
2021/09/07 15:38:19;;;;;;;8.55;3.50;;;32.90;35.50;;;;;;6245426;28;20032;-78
2021/09/07 15:41:22;;;;;;;5.57;3.50;;;32.90;35.60;;;;;;6245477;28;20036;-78
2021/09/07 15:44:24;;;;;;;5.32;3.38;;;32.90;35.70;;;;;;6246654;28;20433;-79
2021/09/07 15:47:26;;;;;;;7.75;3.60;;;32.90;36.00;;;;;;6229517;28;20137;-77
2021/09/07 15:50:27;;;;;;;6.00;3.20;;;32.90;36.10;;;;;;6230540;28;20049;-78
2021/09/07 15:53:30;;;;;;;5.30;3.58;;;32.80;36.20;;;;;;6247744;28;20449;-78